createdAt,value
2022-11-05T00:04:26.751Z,4.32
2022-11-05T00:09:35.368Z,4.10
2022-11-05T00:14:56.174Z,4.05
2022-11-05T00:19:59.881Z,3.85
2022-11-05T00:25:21.978Z,4.28
2022-11-05T00:30:26.906Z,3.62
2022-11-05T00:35:31.489Z,3.75
2022-11-05T00:40:37.234Z,3.40
2022-11-05T00:45:41.145Z,3.40
2022-11-05T00:50:44.816Z,4.07
2022-11-05T00:55:49.961Z,3.62
2022-11-05T01:00:55.228Z,4.00
2022-11-05T01:06:01.227Z,3.58
2022-11-05T01:11:11.658Z,3.60
2022-11-05T01:16:15.748Z,3.10
2022-11-05T01:21:19.461Z,3.33
2022-11-05T01:26:24.933Z,3.60
2022-11-05T01:31:29.213Z,3.53
2022-11-05T01:36:32.879Z,3.75
2022-11-05T01:41:37.898Z,4.00
2022-11-05T01:46:45.468Z,3.83
2022-11-05T01:51:49.881Z,4.63
2022-11-05T01:56:59.096Z,4.57
2022-11-05T02:02:03.844Z,4.55
2022-11-05T02:07:10.251Z,5.43
2022-11-05T02:12:15.962Z,5.20
2022-11-05T02:17:31.493Z,5.85
2022-11-05T02:23:32.816Z,4.28
2022-11-05T02:28:58.615Z,4.53
2022-11-05T02:34:11.259Z,5.15
2022-11-05T02:39:27.444Z,4.65
2022-11-05T02:44:39.584Z,5.53
2022-11-05T02:49:53.358Z,5.18
2022-11-05T02:55:03.327Z,6.80
2022-11-05T03:00:29.305Z,7.10
2022-11-05T03:05:41.511Z,6.95
2022-11-05T03:10:52.813Z,7.47
2022-11-05T03:16:00.217Z,7.45
2022-11-05T03:21:11.703Z,7.63
2022-11-05T03:26:19.949Z,7.90
2022-11-05T03:31:26.258Z,8.30
2022-11-05T03:36:35.187Z,9.02
2022-11-05T03:41:43.210Z,8.63
2022-11-05T03:46:50.234Z,8.40
2022-11-05T03:52:00.027Z,9.05
2022-11-05T03:57:09.606Z,9.02
2022-11-05T04:02:15.223Z,9.40
2022-11-05T04:07:37.924Z,8.82
2022-11-05T04:12:59.252Z,9.40
2022-11-05T04:18:03.029Z,8.75
2022-11-05T04:23:26.226Z,9.23
2022-11-05T04:28:49.904Z,9.00
2022-11-05T04:33:53.600Z,9.32
2022-11-05T04:38:58.855Z,11.02
2022-11-05T04:44:02.634Z,10.68
2022-11-05T04:49:06.324Z,10.82
2022-11-05T04:54:11.379Z,11.35
2022-11-05T04:59:15.096Z,11.30
2022-11-05T05:04:18.774Z,12.90
2022-11-05T05:09:23.773Z,12.05
2022-11-05T05:14:27.404Z,13.80
2022-11-05T05:19:51.253Z,13.13
2022-11-05T05:24:56.660Z,14.25
2022-11-05T05:30:01.141Z,13.15
2022-11-05T05:35:05.165Z,13.27
2022-11-05T05:40:11.983Z,13.98
2022-11-05T05:45:15.659Z,13.85
2022-11-05T05:50:19.346Z,13.85
2022-11-05T05:55:29.673Z,13.02
2022-11-05T06:00:33.397Z,12.95
2022-11-05T06:05:37.080Z,13.45
2022-11-05T06:10:42.100Z,13.62
2022-11-05T06:15:45.786Z,13.18
2022-11-05T06:20:49.500Z,13.05
2022-11-05T06:25:54.518Z,12.48
2022-11-05T06:30:58.266Z,13.20
2022-11-05T06:36:03.274Z,12.18
2022-11-05T06:41:10.468Z,12.20
2022-11-05T06:46:14.450Z,11.27
2022-11-05T06:51:18.189Z,13.05
2022-11-05T06:56:23.283Z,12.50
2022-11-05T07:01:27.116Z,13.80
2022-11-05T07:06:34.353Z,13.75
2022-11-05T07:11:41.957Z,13.07
2022-11-05T07:16:45.960Z,12.80
2022-11-05T07:21:50.886Z,12.37
2022-11-05T07:26:55.944Z,12.23
2022-11-05T07:31:59.613Z,12.85
2022-11-05T07:37:03.289Z,12.70
2022-11-05T07:42:08.318Z,13.00
2022-11-05T07:47:12.537Z,12.40
2022-11-05T07:52:16.254Z,13.20
2022-11-05T07:57:21.345Z,12.93
2022-11-05T08:02:25.318Z,13.02
2022-11-05T08:07:29.566Z,14.20
2022-11-05T08:12:34.787Z,13.18
2022-11-05T08:17:38.486Z,14.48
2022-11-05T08:22:44.409Z,13.10
2022-11-05T08:27:49.556Z,14.15
2022-11-05T08:32:58.208Z,14.25
2022-11-05T08:38:03.702Z,15.18
2022-11-05T08:43:10.785Z,13.73
2022-11-05T08:48:16.655Z,12.80
2022-11-05T08:53:20.352Z,12.50
2022-11-05T08:58:25.422Z,12.02
2022-11-05T09:03:29.128Z,11.23
2022-11-05T09:08:33.009Z,12.27
2022-11-05T09:13:38.177Z,10.82
2022-11-05T09:18:42.401Z,10.85
2022-11-05T09:23:46.757Z,10.65
2022-11-05T09:28:51.911Z,9.70
2022-11-05T09:33:55.968Z,10.10
2022-11-05T09:38:59.810Z,8.50
2022-11-05T09:44:07.098Z,8.98
2022-11-05T09:49:17.288Z,7.40
2022-11-05T09:54:24.226Z,8.07
2022-11-05T09:59:36.170Z,8.02
2022-11-05T10:04:41.587Z,8.55
2022-11-05T10:09:49.492Z,7.47
2022-11-05T10:15:06.261Z,7.53
2022-11-05T10:20:16.016Z,9.80
2022-11-05T10:25:21.950Z,7.53
2022-11-05T10:30:27.128Z,6.50
2022-11-05T10:35:34.162Z,7.65
2022-11-05T10:40:45.267Z,7.57
2022-11-05T10:45:57.220Z,7.37
2022-11-05T10:51:00.946Z,7.75
2022-11-05T10:56:05.219Z,8.30
2022-11-05T11:01:13.275Z,6.93
2022-11-05T11:06:23.889Z,7.20
2022-11-05T11:11:31.884Z,7.78
2022-11-05T11:16:39.772Z,6.40
2022-11-05T11:21:43.493Z,6.20
2022-11-05T11:26:47.251Z,6.43
2022-11-05T11:31:56.335Z,6.10
2022-11-05T11:37:06.437Z,6.53
2022-11-05T11:42:18.526Z,6.90
2022-11-05T11:47:23.723Z,6.60
2022-11-05T11:52:30.409Z,6.85
2022-11-05T11:57:44.631Z,6.72
2022-11-05T12:03:03.955Z,6.05
2022-11-05T12:08:36.123Z,5.35
2022-11-05T12:13:56.342Z,4.37
2022-11-05T12:19:13.276Z,4.68
2022-11-05T12:24:30.668Z,4.45
2022-11-05T12:29:46.195Z,4.10
2022-11-05T12:34:59.146Z,4.22
2022-11-05T12:40:19.427Z,4.57
2022-11-05T12:45:36.517Z,4.57
2022-11-05T12:50:48.485Z,4.68
2022-11-05T12:55:53.746Z,3.90
2022-11-05T13:01:02.506Z,3.55
2022-11-05T13:06:13.128Z,3.95
2022-11-05T13:11:23.639Z,3.80
2022-11-05T13:16:31.742Z,3.78
2022-11-05T13:21:39.292Z,3.58
2022-11-05T13:26:48.160Z,4.10
2022-11-05T13:31:57.462Z,3.55
2022-11-05T13:37:23.409Z,3.75
2022-11-05T13:42:53.414Z,3.40
2022-11-05T13:48:25.175Z,2.95
2022-11-05T13:53:46.333Z,3.25
2022-11-05T13:59:31.796Z,3.30
2022-11-05T14:04:41.102Z,3.08
2022-11-05T14:09:46.806Z,3.80
2022-11-05T14:14:58.910Z,3.53
2022-11-05T14:20:25.989Z,4.93
2022-11-05T14:25:57.101Z,3.62
2022-11-05T14:31:03.096Z,3.85
2022-11-05T14:36:33.320Z,3.70
2022-11-05T14:41:53.298Z,4.05
2022-11-05T14:47:01.869Z,3.40
2022-11-05T14:52:11.816Z,4.05
2022-11-05T14:57:36.398Z,3.20
2022-11-05T15:02:57.960Z,3.80
2022-11-05T15:08:32.626Z,3.80
2022-11-05T15:13:41.634Z,3.28
2022-11-05T15:18:48.312Z,3.30
2022-11-05T15:23:56.320Z,3.90
2022-11-05T15:29:01.993Z,4.10
2022-11-05T15:34:22.264Z,3.67
2022-11-05T15:39:35.114Z,4.00
2022-11-05T15:44:40.916Z,3.92
2022-11-05T15:49:48.170Z,4.25
2022-11-05T15:55:09.591Z,3.97
2022-11-05T16:00:18.598Z,4.53
2022-11-05T16:05:26.465Z,3.92
2022-11-05T16:10:33.015Z,4.18
2022-11-05T16:15:36.761Z,4.95
2022-11-05T16:20:41.912Z,4.28
2022-11-05T16:25:47.194Z,4.37
2022-11-05T16:30:56.820Z,4.20
2022-11-05T16:36:02.185Z,4.75
2022-11-05T16:41:05.990Z,3.97
2022-11-05T16:46:12.019Z,4.22
2022-11-05T16:51:18.708Z,4.45
2022-11-05T16:56:24.949Z,5.10
2022-11-05T17:01:29.027Z,4.45
2022-11-05T17:06:34.178Z,4.78
2022-11-05T17:11:37.913Z,4.78
2022-11-05T17:16:42.384Z,5.12
2022-11-05T17:21:47.521Z,5.40
2022-11-05T17:26:51.287Z,4.45
2022-11-05T17:31:55.284Z,4.15
2022-11-05T17:37:00.321Z,3.75
2022-11-05T17:42:04.025Z,4.00
2022-11-05T17:47:08.143Z,4.65
2022-11-05T17:52:13.254Z,4.12
2022-11-05T17:57:17.193Z,4.87
2022-11-05T18:02:21.118Z,4.28
2022-11-05T18:07:26.348Z,4.15
2022-11-05T18:12:30.186Z,4.57
2022-11-05T18:17:34.050Z,4.30
2022-11-05T18:22:40.373Z,4.68
2022-11-05T18:27:44.465Z,4.65
2022-11-05T18:32:48.331Z,4.20
2022-11-05T18:37:53.374Z,5.55
2022-11-05T18:42:57.031Z,4.47
2022-11-05T18:48:01.483Z,4.93
2022-11-05T18:53:06.672Z,5.10
2022-11-05T18:58:10.941Z,5.15
2022-11-05T19:03:14.873Z,5.07
2022-11-05T19:08:19.881Z,5.47
2022-11-05T19:13:23.573Z,4.90
2022-11-05T19:18:27.290Z,5.12
2022-11-05T19:23:33.917Z,6.10
2022-11-05T19:28:38.166Z,6.43
2022-11-05T19:33:42.145Z,5.25
2022-11-05T19:38:47.388Z,5.32
2022-11-05T19:43:52.425Z,5.65
2022-11-05T19:48:56.396Z,5.47
2022-11-05T19:54:03.282Z,6.28
2022-11-05T19:59:07.595Z,6.18
2022-11-05T20:04:12.207Z,6.07
2022-11-05T20:09:22.219Z,5.68
2022-11-05T20:14:27.570Z,6.75
2022-11-05T20:19:31.433Z,5.85
2022-11-05T20:24:36.733Z,6.62
2022-11-05T20:29:40.811Z,6.85
2022-11-05T20:34:44.577Z,5.87
2022-11-05T20:39:49.751Z,6.82
2022-11-05T20:44:53.508Z,7.10
2022-11-05T20:49:58.405Z,7.50
2022-11-05T20:55:04.392Z,7.40
2022-11-05T21:00:09.583Z,6.97
2022-11-05T21:05:13.326Z,6.55
2022-11-05T21:10:18.418Z,6.15
2022-11-05T21:15:24.291Z,6.85
2022-11-05T21:20:28.565Z,6.95
2022-11-05T21:25:34.333Z,6.85
2022-11-05T21:30:39.260Z,6.82
2022-11-05T21:35:44.827Z,6.62
2022-11-05T21:40:50.063Z,5.70
2022-11-05T21:45:53.809Z,6.28
2022-11-05T21:51:15.703Z,6.60
2022-11-05T21:56:40.655Z,5.65
2022-11-05T22:01:44.556Z,6.50
2022-11-05T22:06:48.424Z,5.53
2022-11-05T22:11:53.870Z,5.70
2022-11-05T22:16:58.240Z,5.95
2022-11-05T22:22:02.092Z,6.28
2022-11-05T22:27:09.880Z,6.35
2022-11-05T22:32:14.208Z,5.68
2022-11-05T22:37:17.909Z,6.03
2022-11-05T22:42:23.063Z,6.12
2022-11-05T22:47:26.814Z,5.25
2022-11-05T22:52:30.510Z,5.35
2022-11-05T22:57:35.659Z,5.40
2022-11-05T23:02:39.641Z,5.93
2022-11-05T23:08:01.142Z,5.60
2022-11-05T23:13:07.647Z,6.53
2022-11-05T23:18:29.005Z,6.20
2022-11-05T23:23:50.410Z,5.32
2022-11-05T23:28:55.441Z,5.30
2022-11-05T23:33:59.191Z,6.22
2022-11-05T23:39:02.834Z,5.10
2022-11-05T23:44:27.580Z,5.82
2022-11-05T23:49:31.555Z,6.25
2022-11-05T23:54:35.261Z,5.00
2022-11-05T23:59:40.258Z,6.15
